Time;durP1;ratioP1;P1;durP2;ratioP2;P2;SDS_P1;SDS_P2;PMS_P1;PMS_P2;Temp;Humidity;BMP_temperature;BMP_pressure;BME280_temperature;BME280_humidity;BME280_pressure;Samples;Min_cycle;Max_cycle;Signal;HPM_P1;HPM_P2
2024/01/01 00:04:49;;;;;;;114.90;63.70;;;3.70;99.90;;;;;;10329948;28;20260;-84
2024/01/01 00:09:52;;;;;;;100.93;57.40;;;3.50;99.90;;;;;;10288124;28;20683;-84
2024/01/01 00:14:54;;;;;;;89.27;55.30;;;3.50;99.90;;;;;;10319316;28;20229;-84
2024/01/01 00:19:59;;;;;;;101.60;57.40;;;3.60;99.90;;;;;;10313641;28;20267;-84
2024/01/01 00:25:02;;;;;;;93.30;56.37;;;3.50;99.90;;;;;;10328988;28;20257;-84
2024/01/01 00:30:08;;;;;;;158.30;86.27;;;3.10;99.90;;;;;;10319139;28;20657;-84
2024/01/01 00:35:11;;;;;;;109.93;64.90;;;3.30;99.90;;;;;;10309067;28;20233;-83
2024/01/01 00:40:15;;;;;;;123.07;72.70;;;3.50;99.90;;;;;;10331276;28;20221;-85
2024/01/01 00:45:18;;;;;;;100.93;54.67;;;3.60;99.90;;;;;;10294126;28;20249;-85
2024/01/01 00:50:20;;;;;;;95.03;58.30;;;3.60;99.90;;;;;;10337290;28;20747;-84
2024/01/01 00:55:23;;;;;;;80.87;51.67;;;3.40;99.90;;;;;;10369909;28;20236;-85
2024/01/01 01:00:25;;;;;;;90.90;53.10;;;3.10;99.90;;;;;;10338926;28;20913;-85
2024/01/01 01:05:29;;;;;;;85.40;52.17;;;3.10;99.90;;;;;;10328267;28;20264;-85
2024/01/01 01:10:31;;;;;;;82.07;45.03;;;3.10;99.90;;;;;;10311331;28;20692;-90
2024/01/01 01:15:48;;;;;;;78.60;46.43;;;3.00;99.90;;;;;;10213902;29;20302;-87
2024/01/01 01:20:51;;;;;;;84.43;52.17;;;2.80;99.90;;;;;;10226523;29;20281;-86
2024/01/01 01:25:53;;;;;;;79.60;46.63;;;2.70;99.90;;;;;;10228878;29;20222;-86
2024/01/01 01:30:56;;;;;;;82.73;47.53;;;2.70;99.90;;;;;;10245084;29;20245;-86
2024/01/01 01:36:00;;;;;;;88.57;51.63;;;2.80;99.90;;;;;;10245137;29;20260;-87
2024/01/01 01:41:03;;;;;;;88.47;47.90;;;2.80;99.90;;;;;;10228124;29;20309;-87
2024/01/01 01:46:06;;;;;;;86.37;48.53;;;2.80;99.90;;;;;;10237965;29;20247;-87
2024/01/01 01:51:09;;;;;;;82.93;47.50;;;2.90;99.90;;;;;;10244617;28;20229;-86
2024/01/01 01:56:14;;;;;;;80.77;42.57;;;3.00;99.90;;;;;;10311263;28;20232;-86
2024/01/01 02:01:17;;;;;;;75.60;45.63;;;2.70;99.90;;;;;;10310978;28;20256;-86
2024/01/01 02:06:19;;;;;;;80.00;45.30;;;2.60;99.90;;;;;;10324698;28;20364;-86
2024/01/01 02:11:22;;;;;;;85.20;45.10;;;2.30;99.90;;;;;;10357816;28;20630;-86
2024/01/01 02:16:24;;;;;;;83.03;43.97;;;2.20;99.90;;;;;;10364151;28;20244;-86
2024/01/01 02:21:27;;;;;;;81.97;44.67;;;2.20;99.90;;;;;;10367114;28;20316;-86
2024/01/01 02:26:30;;;;;;;77.50;45.20;;;2.10;99.90;;;;;;10367310;28;20677;-86
2024/01/01 02:31:33;;;;;;;81.63;44.50;;;2.10;99.90;;;;;;10349288;28;20236;-86
2024/01/01 02:36:37;;;;;;;76.97;46.13;;;2.30;99.90;;;;;;10326115;28;20674;-86
2024/01/01 02:41:39;;;;;;;85.97;48.63;;;2.50;99.90;;;;;;10327486;28;20256;-86
2024/01/01 02:46:42;;;;;;;73.23;44.03;;;2.60;99.90;;;;;;10339063;28;20263;-86
2024/01/01 02:51:44;;;;;;;77.90;46.13;;;2.60;99.90;;;;;;10325622;28;20236;-86
2024/01/01 02:56:47;;;;;;;78.63;49.17;;;2.60;99.90;;;;;;10334976;28;20685;-86
2024/01/01 03:01:50;;;;;;;87.10;48.63;;;2.60;99.90;;;;;;10367642;28;20309;-85
2024/01/01 03:06:52;;;;;;;83.57;46.93;;;2.60;99.90;;;;;;10371006;28;20293;-86
2024/01/01 03:11:55;;;;;;;92.63;49.33;;;2.70;99.90;;;;;;10357381;28;20655;-86
2024/01/01 03:16:58;;;;;;;89.87;51.13;;;2.80;99.90;;;;;;10375741;28;20671;-86
2024/01/01 03:22:01;;;;;;;89.37;49.93;;;2.80;99.90;;;;;;10357894;28;20325;-86
2024/01/01 03:27:04;;;;;;;81.27;49.47;;;2.80;99.90;;;;;;10348003;28;20270;-86
2024/01/01 03:32:07;;;;;;;87.73;50.57;;;2.90;99.90;;;;;;10357329;28;20244;-86
2024/01/01 03:37:09;;;;;;;82.93;48.93;;;3.00;99.90;;;;;;10374863;28;20786;-86
2024/01/01 03:42:11;;;;;;;80.70;47.20;;;3.10;99.90;;;;;;10339967;28;20261;-86
2024/01/01 03:47:14;;;;;;;95.13;50.87;;;3.30;99.90;;;;;;10293388;28;20637;-86
2024/01/01 03:52:17;;;;;;;81.03;45.13;;;3.10;99.90;;;;;;10332588;28;20228;-86
2024/01/01 03:57:20;;;;;;;78.97;44.63;;;3.20;99.90;;;;;;10374021;28;20717;-86
2024/01/01 04:02:22;;;;;;;74.67;45.00;;;3.30;99.90;;;;;;10354568;28;20732;-86
2024/01/01 04:07:25;;;;;;;78.90;44.17;;;3.30;99.90;;;;;;10355395;28;20239;-86
2024/01/01 04:12:27;;;;;;;72.27;43.47;;;3.20;99.90;;;;;;10355499;28;20240;-86
2024/01/01 04:17:31;;;;;;;71.50;42.50;;;3.20;99.90;;;;;;10335194;28;20213;-86
2024/01/01 04:22:33;;;;;;;80.00;42.57;;;3.00;99.90;;;;;;10315395;28;20256;-86
2024/01/01 04:27:36;;;;;;;80.03;43.33;;;3.10;99.90;;;;;;10311054;28;20233;-86
2024/01/01 04:32:39;;;;;;;68.20;38.93;;;3.10;99.90;;;;;;10290888;28;20245;-86
2024/01/01 04:37:41;;;;;;;76.60;41.97;;;3.00;99.90;;;;;;10337008;28;20623;-86
2024/01/01 04:42:44;;;;;;;69.37;40.30;;;3.10;99.90;;;;;;10354545;28;20724;-86
2024/01/01 04:47:46;;;;;;;64.70;39.23;;;3.10;99.90;;;;;;10372683;28;20249;-86
2024/01/01 04:52:49;;;;;;;62.93;37.50;;;3.10;99.90;;;;;;10371667;28;20235;-86
2024/01/01 04:57:51;;;;;;;62.07;38.80;;;3.20;99.90;;;;;;10336953;28;20228;-87
2024/01/01 05:02:56;;;;;;;65.33;38.90;;;3.20;99.90;;;;;;10371015;28;20707;-87
2024/01/01 05:07:58;;;;;;;64.00;39.00;;;3.20;99.90;;;;;;10371146;28;20255;-87
2024/01/01 05:13:01;;;;;;;62.77;37.67;;;3.20;99.90;;;;;;10328736;28;20233;-87
2024/01/01 05:18:05;;;;;;;66.90;38.47;;;3.30;99.90;;;;;;10333419;28;20235;-87
2024/01/01 05:23:08;;;;;;;64.53;35.77;;;3.40;99.90;;;;;;10370715;28;20261;-87
2024/01/01 05:28:10;;;;;;;64.47;37.60;;;3.40;99.90;;;;;;10371924;28;20184;-87
2024/01/01 05:33:13;;;;;;;64.10;35.47;;;3.50;99.90;;;;;;10353798;28;20220;-87
2024/01/01 05:38:17;;;;;;;59.10;34.63;;;3.50;99.90;;;;;;10372060;28;20291;-87
2024/01/01 05:43:21;;;;;;;54.03;32.60;;;3.50;99.90;;;;;;10371011;28;20625;-87
2024/01/01 05:48:24;;;;;;;50.93;29.83;;;3.60;99.90;;;;;;10372403;28;20299;-87
2024/01/01 05:53:37;;;;;;;50.33;31.10;;;3.60;99.90;;;;;;10355107;28;20298;-87
2024/01/01 05:58:40;;;;;;;45.37;30.33;;;3.60;99.90;;;;;;10323715;28;20233;-87
2024/01/01 06:03:44;;;;;;;43.83;28.13;;;3.70;99.90;;;;;;10329279;28;20292;-87
2024/01/01 06:08:46;;;;;;;49.17;26.87;;;3.70;99.90;;;;;;10368777;28;20315;-87
2024/01/01 06:13:49;;;;;;;51.80;30.47;;;3.70;99.90;;;;;;10371216;28;20239;-87
2024/01/01 06:18:51;;;;;;;52.03;29.53;;;4.00;99.90;;;;;;10370610;28;20239;-87
2024/01/01 06:23:54;;;;;;;44.20;27.07;;;4.40;99.90;;;;;;10370997;28;20217;-86
2024/01/01 06:28:57;;;;;;;47.57;28.77;;;4.40;99.90;;;;;;10369401;28;20208;-87
2024/01/01 06:34:01;;;;;;;39.13;25.33;;;4.50;99.90;;;;;;10329765;28;20225;-87
2024/01/01 06:39:04;;;;;;;45.17;26.17;;;4.20;99.90;;;;;;10311020;28;20236;-87
2024/01/01 06:44:06;;;;;;;43.03;25.97;;;4.10;99.90;;;;;;10328355;28;20256;-86
2024/01/01 06:49:09;;;;;;;42.30;24.23;;;4.10;99.90;;;;;;10288943;28;20202;-87
2024/01/01 06:54:12;;;;;;;41.90;24.97;;;4.10;99.90;;;;;;10318281;28;20236;-87
2024/01/01 06:59:16;;;;;;;40.13;25.27;;;4.00;99.90;;;;;;10302755;28;20202;-87
2024/01/01 07:04:19;;;;;;;36.37;24.63;;;3.80;99.90;;;;;;10288873;28;20264;-87
2024/01/01 07:09:22;;;;;;;36.10;22.30;;;3.70;99.90;;;;;;10288791;28;20195;-87
2024/01/01 07:14:25;;;;;;;36.53;22.60;;;3.40;99.90;;;;;;10368019;28;20180;-88
2024/01/01 07:19:29;;;;;;;33.77;23.20;;;3.10;99.90;;;;;;10422271;28;20173;-88
2024/01/01 07:24:32;;;;;;;40.00;25.60;;;3.10;99.90;;;;;;10405007;28;20231;-88
2024/01/01 07:29:34;;;;;;;38.97;25.70;;;3.30;99.90;;;;;;10421662;28;20223;-88
2024/01/01 07:34:36;;;;;;;40.13;26.57;;;3.40;99.90;;;;;;10421570;28;20203;-88
2024/01/01 07:39:39;;;;;;;38.57;24.67;;;3.60;99.90;;;;;;10380987;28;20228;-88
2024/01/01 07:44:41;;;;;;;39.23;25.57;;;3.50;99.90;;;;;;10380506;28;20244;-88
2024/01/01 07:49:44;;;;;;;38.87;24.37;;;3.50;99.90;;;;;;10348025;28;20185;-88
2024/01/01 07:54:48;;;;;;;38.80;25.80;;;3.40;99.90;;;;;;10381698;28;20182;-86
2024/01/01 07:59:51;;;;;;;43.90;26.53;;;3.60;99.90;;;;;;10428263;28;20215;-87
2024/01/01 08:04:54;;;;;;;44.03;26.50;;;3.50;99.90;;;;;;10428268;28;20236;-87
2024/01/01 08:09:57;;;;;;;52.33;28.77;;;3.80;99.90;;;;;;10393062;28;20225;-86
2024/01/01 08:15:00;;;;;;;42.10;26.17;;;4.30;99.90;;;;;;10324767;28;20210;-87
2024/01/01 08:20:03;;;;;;;41.50;26.47;;;4.50;99.90;;;;;;10340395;28;20249;-87
2024/01/01 08:25:06;;;;;;;68.20;37.17;;;4.90;99.90;;;;;;10387368;28;20251;-86
2024/01/01 08:30:09;;;;;;;48.23;29.77;;;5.40;99.90;;;;;;10421915;28;20188;-87
2024/01/01 08:35:11;;;;;;;50.97;32.07;;;6.20;99.90;;;;;;10421272;28;20182;-86
2024/01/01 08:40:17;;;;;;;52.87;31.43;;;6.70;99.90;;;;;;10370736;28;20207;-86
2024/01/01 08:45:20;;;;;;;48.43;30.77;;;7.10;99.90;;;;;;10342756;28;20246;-85
2024/01/01 08:50:22;;;;;;;49.97;29.77;;;7.40;99.90;;;;;;10380355;28;20202;-86
2024/01/01 08:55:25;;;;;;;46.10;26.80;;;7.50;99.90;;;;;;10326550;28;20201;-87
2024/01/01 09:00:28;;;;;;;46.60;29.20;;;7.40;99.90;;;;;;10298518;28;20220;-87
2024/01/01 09:05:31;;;;;;;44.37;29.83;;;7.70;99.90;;;;;;10297409;28;20593;-87
2024/01/01 09:10:33;;;;;;;36.17;22.27;;;7.80;99.90;;;;;;10320246;28;20197;-87
2024/01/01 09:15:36;;;;;;;43.73;26.70;;;7.60;99.90;;;;;;10348144;28;20597;-87
2024/01/01 09:20:41;;;;;;;44.17;26.60;;;7.50;99.90;;;;;;10337981;28;20250;-87
2024/01/01 09:25:44;;;;;;;41.60;25.53;;;7.60;99.90;;;;;;10354261;28;20293;-87
2024/01/01 09:30:47;;;;;;;41.20;24.83;;;8.00;99.90;;;;;;10378846;28;20567;-87
2024/01/01 09:35:51;;;;;;;36.23;24.87;;;7.90;99.90;;;;;;10379813;28;20231;-87
2024/01/01 09:40:55;;;;;;;39.60;23.70;;;8.30;99.90;;;;;;10360029;28;20208;-87
2024/01/01 09:45:57;;;;;;;28.33;17.30;;;8.40;99.90;;;;;;10376126;28;20243;-87
2024/01/01 09:51:02;;;;;;;40.10;25.63;;;8.50;99.90;;;;;;10369304;28;20205;-87
2024/01/01 09:56:05;;;;;;;38.73;23.90;;;8.70;99.90;;;;;;10318639;28;20195;-87
2024/01/01 10:01:19;;;;;;;24.27;15.93;;;9.20;99.90;;;;;;10342849;28;20232;-87
2024/01/01 10:06:22;;;;;;;35.43;22.17;;;9.00;99.90;;;;;;10377924;28;20297;-85
2024/01/01 10:11:24;;;;;;;30.30;18.63;;;9.40;99.90;;;;;;10373794;28;20602;-87
2024/01/01 10:16:27;;;;;;;34.43;21.20;;;9.70;99.90;;;;;;10331083;28;20242;-86
2024/01/01 10:21:32;;;;;;;33.10;20.60;;;9.90;99.90;;;;;;10321282;28;20638;-87
2024/01/01 10:26:39;;;;;;;35.77;22.10;;;10.20;99.90;;;;;;10333285;28;20262;-86
2024/01/01 10:31:44;;;;;;;34.00;22.50;;;10.40;99.90;;;;;;10346056;28;20235;-87
2024/01/01 10:36:50;;;;;;;30.17;19.90;;;10.70;99.90;;;;;;10358802;28;20259;-86
2024/01/01 10:41:54;;;;;;;31.97;20.43;;;11.10;99.90;;;;;;10339883;28;20200;-87
2024/01/01 10:46:58;;;;;;;25.60;17.77;;;11.70;99.90;;;;;;10343904;28;20761;-87
2024/01/01 10:52:21;;;;;;;32.47;19.70;;;11.90;99.90;;;;;;10286695;28;20252;-86
2024/01/01 10:57:53;;;;;;;24.17;17.10;;;12.10;99.90;;;;;;10370616;28;20192;-87
2024/01/01 11:02:56;;;;;;;24.17;17.07;;;12.20;99.90;;;;;;10297710;28;20235;-87
2024/01/01 11:07:59;;;;;;;25.07;15.97;;;;;;;;;;10363548;28;20246;-86
2024/01/01 11:13:03;;;;;;;24.20;16.87;;;12.50;99.90;;;;;;10330917;28;20269;-86
2024/01/01 11:18:16;;;;;;;24.43;16.73;;;12.60;99.90;;;;;;10300336;28;20206;-86
2024/01/01 11:23:41;;;;;;;22.43;14.27;;;12.50;99.90;;;;;;10284417;28;20230;-86
2024/01/01 11:28:43;;;;;;;18.60;11.67;;;12.40;99.90;;;;;;10294072;28;20741;-86
2024/01/01 11:34:01;;;;;;;18.63;10.83;;;12.40;99.90;;;;;;10265505;28;20260;-86
2024/01/01 11:39:24;;;;;;;24.27;14.37;;;12.60;99.90;;;;;;10330587;28;20246;-86
2024/01/01 11:44:26;;;;;;;28.13;16.20;;;12.90;99.90;;;;;;10362589;28;20221;-86
2024/01/01 11:49:29;;;;;;;25.37;15.30;;;12.90;99.90;;;;;;10337807;28;20198;-86
2024/01/01 11:54:32;;;;;;;22.33;14.63;;;12.70;99.90;;;;;;10337265;28;20657;-86
2024/01/01 11:59:36;;;;;;;25.13;15.60;;;12.60;99.90;;;;;;10324534;28;20209;-86
2024/01/01 12:04:39;;;;;;;23.13;15.30;;;12.40;99.90;;;;;;10336978;28;20229;-87
2024/01/01 12:09:43;;;;;;;19.40;13.37;;;12.20;99.90;;;;;;9645980;28;10000560;-87
2024/01/01 12:14:45;;;;;;;23.73;15.60;;;12.20;99.90;;;;;;10308479;28;20773;-87
2024/01/01 12:19:50;;;;;;;23.53;14.07;;;12.10;99.90;;;;;;10311835;28;20212;-87
2024/01/01 12:24:57;;;;;;;24.30;14.83;;;12.10;99.90;;;;;;10328988;28;20285;-87
2024/01/01 12:30:00;;;;;;;18.43;12.87;;;12.20;99.90;;;;;;10322573;28;20290;-87
2024/01/01 12:35:03;;;;;;;20.37;14.80;;;12.30;99.90;;;;;;10288603;28;20260;-86
2024/01/01 12:40:07;;;;;;;20.13;12.87;;;12.40;99.90;;;;;;10305288;28;20237;-86
2024/01/01 12:45:09;;;;;;;18.80;13.93;;;12.30;99.90;;;;;;10315627;28;20311;-86
2024/01/01 12:50:12;;;;;;;17.97;13.10;;;12.20;99.90;;;;;;10317282;28;20276;-86
2024/01/01 12:55:14;;;;;;;21.77;15.53;;;12.30;99.90;;;;;;10300035;28;20236;-85
2024/01/01 13:00:17;;;;;;;23.13;13.70;;;12.00;99.90;;;;;;10339322;28;20239;-86
2024/01/01 13:05:20;;;;;;;20.37;14.60;;;11.60;99.90;;;;;;10320974;28;20261;-86
2024/01/01 13:10:22;;;;;;;20.70;13.77;;;11.60;99.90;;;;;;10306987;28;20232;-87
2024/01/01 13:15:25;;;;;;;20.50;14.60;;;11.20;99.90;;;;;;10370151;28;20228;-87
2024/01/01 13:20:27;;;;;;;20.80;13.23;;;10.90;99.90;;;;;;10370705;28;20235;-87
2024/01/01 13:25:30;;;;;;;17.47;10.53;;;11.30;99.90;;;;;;10323607;28;20284;-86
2024/01/01 13:30:32;;;;;;;16.07;11.23;;;10.60;99.90;;;;;;10349085;28;20259;-87
2024/01/01 13:35:42;;;;;;;23.43;12.57;;;9.90;99.90;;;;;;10326763;28;20305;-87
2024/01/01 13:40:44;;;;;;;22.37;14.17;;;8.30;99.90;;;;;;10288983;28;20303;-84
2024/01/01 13:45:47;;;;;;;20.53;13.40;;;7.50;99.90;;;;;;10279754;28;20713;-85
2024/01/01 13:50:49;;;;;;;22.80;14.47;;;7.20;99.90;;;;;;10334815;28;20275;-84
2024/01/01 13:55:54;;;;;;;87.67;27.17;;;;;;;;;;10330331;28;20232;-86
2024/01/01 14:00:56;;;;;;;57.73;22.93;;;7.10;99.90;;;;;;10326040;28;20304;-85
2024/01/01 14:05:59;;;;;;;67.80;23.70;;;8.30;99.90;;;;;;10316286;28;20786;-86
2024/01/01 14:11:04;;;;;;;29.40;15.73;;;8.80;99.90;;;;;;10322689;28;20221;-87
2024/01/01 14:16:06;;;;;;;30.00;16.67;;;9.20;99.90;;;;;;10320005;28;20236;-88
2024/01/01 14:21:09;;;;;;;53.53;20.67;;;9.80;99.90;;;;;;10326298;28;20347;-87
2024/01/01 14:26:11;;;;;;;55.43;21.30;;;10.00;99.90;;;;;;10320018;28;20269;-88
2024/01/01 14:31:14;;;;;;;31.23;18.33;;;9.90;99.90;;;;;;10326144;28;20237;-86
2024/01/01 14:36:17;;;;;;;30.53;17.60;;;9.20;99.90;;;;;;10359623;28;20284;-87
2024/01/01 14:41:19;;;;;;;33.53;19.53;;;7.60;99.90;;;;;;10368909;28;20279;-85
2024/01/01 14:46:22;;;;;;;34.50;19.90;;;6.70;99.90;;;;;;10367650;28;20248;-86
2024/01/01 14:51:24;;;;;;;39.13;21.67;;;6.30;99.90;;;;;;10324469;28;20252;-85
2024/01/01 14:56:27;;;;;;;52.33;29.03;;;5.70;99.90;;;;;;10329564;28;20299;-87
2024/01/01 15:01:29;;;;;;;49.93;25.87;;;5.60;99.90;;;;;;10325000;28;20232;-85
2024/01/01 15:06:32;;;;;;;40.13;19.57;;;5.20;99.90;;;;;;10365765;28;20260;-85
2024/01/01 15:11:34;;;;;;;33.07;18.13;;;5.10;99.90;;;;;;10366708;28;20255;-85
2024/01/01 15:16:37;;;;;;;38.33;20.10;;;5.20;99.90;;;;;;10365347;28;20244;-85
2024/01/01 15:21:42;;;;;;;36.93;18.67;;;5.30;99.90;;;;;;10365434;28;20262;-85
2024/01/01 15:26:44;;;;;;;42.13;21.23;;;5.30;99.90;;;;;;10357663;28;20253;-85
2024/01/01 15:31:47;;;;;;;45.50;23.03;;;5.30;99.90;;;;;;10348440;28;20256;-85
2024/01/01 15:36:51;;;;;;;45.43;22.70;;;5.50;99.90;;;;;;10291914;28;20260;-85
2024/01/01 15:41:54;;;;;;;39.93;20.40;;;5.80;99.90;;;;;;10291017;28;20239;-85
2024/01/01 15:46:56;;;;;;;43.03;22.83;;;6.10;99.90;;;;;;10301649;28;20249;-86
2024/01/01 15:51:59;;;;;;;38.43;23.03;;;6.10;99.90;;;;;;10323216;28;20229;-87
2024/01/01 15:57:01;;;;;;;46.57;25.47;;;6.40;99.90;;;;;;10272528;28;20239;-86
2024/01/01 16:02:06;;;;;;;39.07;24.50;;;6.20;99.90;;;;;;10287865;28;20307;-86
2024/01/01 16:07:12;;;;;;;39.87;23.03;;;5.90;99.90;;;;;;10315353;28;20280;-87
2024/01/01 16:12:15;;;;;;;41.03;24.20;;;5.60;99.90;;;;;;10318644;28;20754;-87
2024/01/01 16:17:17;;;;;;;42.73;25.50;;;5.50;99.90;;;;;;10316451;28;20280;-87
2024/01/01 16:22:20;;;;;;;46.17;24.50;;;5.40;99.90;;;;;;10272360;28;20763;-87
2024/01/01 16:27:23;;;;;;;46.83;26.77;;;5.40;99.90;;;;;;10330410;28;20273;-87
2024/01/01 16:32:25;;;;;;;54.83;26.43;;;5.50;99.90;;;;;;10333292;28;20236;-89
2024/01/01 16:37:28;;;;;;;52.50;26.97;;;5.50;99.90;;;;;;10331414;28;20223;-88
2024/01/01 16:42:30;;;;;;;55.93;33.20;;;6.00;99.90;;;;;;10325241;28;20264;-88
2024/01/01 16:47:33;;;;;;;52.07;30.87;;;5.70;99.90;;;;;;10348590;28;20258;-87
2024/01/01 16:52:36;;;;;;;56.00;30.93;;;5.30;99.90;;;;;;10355701;28;20220;-87
2024/01/01 16:57:40;;;;;;;52.07;29.47;;;5.20;99.90;;;;;;10370611;28;20254;-86
2024/01/01 17:02:43;;;;;;;52.00;28.43;;;5.10;99.90;;;;;;9617535;28;10000706;-86
2024/01/01 17:07:45;;;;;;;55.63;31.07;;;5.20;99.90;;;;;;10310329;28;20257;-86
2024/01/01 17:12:48;;;;;;;56.40;29.93;;;5.20;99.90;;;;;;10326822;28;20654;-86
2024/01/01 17:17:50;;;;;;;50.27;25.67;;;5.20;99.90;;;;;;10349962;28;20231;-86
2024/01/01 17:22:53;;;;;;;45.70;26.63;;;5.20;99.90;;;;;;10407654;28;20239;-86
2024/01/01 17:28:06;;;;;;;47.10;24.57;;;5.30;99.90;;;;;;10374946;28;20250;-86
2024/01/01 17:33:10;;;;;;;42.57;22.73;;;5.30;99.90;;;;;;10392217;28;20237;-86
2024/01/01 17:38:13;;;;;;;31.63;17.87;;;5.30;99.90;;;;;;10315989;28;20232;-86
2024/01/01 17:43:16;;;;;;;33.77;17.20;;;5.60;99.90;;;;;;10379305;28;20281;-86
2024/01/01 17:48:19;;;;;;;35.00;18.53;;;6.00;99.90;;;;;;10351514;28;20606;-86
2024/01/01 17:53:21;;;;;;;27.87;14.37;;;7.20;99.90;;;;;;10365375;28;20782;-86
2024/01/01 17:58:28;;;;;;;26.60;14.63;;;8.10;99.90;;;;;;10378937;28;20292;-86
2024/01/01 18:03:31;;;;;;;26.93;15.17;;;8.40;99.90;;;;;;10371660;28;20323;-86
2024/01/01 18:08:37;;;;;;;20.83;14.10;;;7.80;99.90;;;;;;10364549;28;20719;-85
2024/01/01 18:13:40;;;;;;;34.47;19.60;;;6.40;99.90;;;;;;10347063;28;20232;-85
2024/01/01 18:18:42;;;;;;;29.47;18.83;;;5.70;99.90;;;;;;10366864;28;20286;-85
2024/01/01 18:23:45;;;;;;;34.00;19.57;;;5.30;99.90;;;;;;10358532;28;20331;-86
2024/01/01 18:28:48;;;;;;;26.57;15.17;;;4.90;99.90;;;;;;10348602;28;20899;-87
2024/01/01 18:33:50;;;;;;;32.03;15.47;;;4.70;99.90;;;;;;10366321;28;20228;-88
2024/01/01 18:38:53;;;;;;;31.77;16.27;;;4.80;99.90;;;;;;10362771;28;20228;-90
2024/01/01 18:43:56;;;;;;;30.73;15.83;;;4.60;99.90;;;;;;10366122;28;20750;-87
2024/01/01 18:48:58;;;;;;;31.60;17.10;;;4.50;99.90;;;;;;10365643;28;20745;-88
2024/01/01 18:54:01;;;;;;;26.03;15.87;;;4.40;99.90;;;;;;10366411;28;20220;-87
2024/01/01 18:59:04;;;;;;;26.87;15.77;;;4.60;99.90;;;;;;10364382;28;20250;-89
2024/01/01 19:04:06;;;;;;;32.40;14.33;;;4.60;99.90;;;;;;10330453;28;20236;-88
2024/01/01 19:09:21;;;;;;;31.97;17.27;;;4.60;99.90;;;;;;10343377;28;20232;-88
2024/01/01 19:14:23;;;;;;;27.40;14.77;;;4.70;99.90;;;;;;10355834;28;20744;-86
2024/01/01 19:19:26;;;;;;;28.33;16.47;;;4.80;99.90;;;;;;9989258;28;10000582;-87
2024/01/01 19:24:28;;;;;;;26.97;14.60;;;4.80;99.90;;;;;;10319003;28;20684;-86
2024/01/01 19:29:31;;;;;;;27.47;15.47;;;4.80;99.90;;;;;;10346842;28;20251;-87
2024/01/01 19:34:34;;;;;;;37.07;20.60;;;4.80;99.90;;;;;;10358290;28;20228;-87
2024/01/01 19:39:39;;;;;;;43.90;19.97;;;4.80;99.90;;;;;;10287325;28;20618;-86
2024/01/01 19:44:42;;;;;;;39.23;20.00;;;4.80;99.90;;;;;;10281255;28;20296;-86
2024/01/01 19:49:45;;;;;;;40.13;20.47;;;4.80;99.90;;;;;;10364277;28;20232;-87
2024/01/01 19:54:47;;;;;;;42.40;19.83;;;4.80;99.90;;;;;;10325167;28;20288;-86
2024/01/01 19:59:50;;;;;;;603.87;303.93;;;4.80;99.90;;;;;;10314753;28;20303;-87
2024/01/01 20:04:52;;;;;;;772.17;393.17;;;5.20;99.90;;;;;;10291063;28;20281;-86
2024/01/01 20:09:58;;;;;;;533.53;280.30;;;5.90;99.90;;;;;;10289852;28;20833;-86
2024/01/01 20:15:01;;;;;;;422.20;204.40;;;6.30;99.90;;;;;;10276124;28;20757;-85
2024/01/01 20:20:07;;;;;;;633.63;346.40;;;6.70;99.90;;;;;;10292935;28;20307;-87
2024/01/01 20:25:09;;;;;;;471.97;248.47;;;7.30;99.90;;;;;;10276562;28;20202;-89
2024/01/01 20:30:13;;;;;;;292.97;148.50;;;7.90;99.90;;;;;;10293043;28;20243;-85
2024/01/01 20:35:16;;;;;;;501.57;273.40;;;8.20;99.90;;;;;;10291820;28;20241;-86
2024/01/01 20:40:18;;;;;;;99.40;52.40;;;8.30;99.90;;;;;;10332569;28;20642;-87
2024/01/01 20:45:21;;;;;;;20.10;11.70;;;8.60;99.90;;;;;;10331690;28;20291;-88
2024/01/01 20:50:23;;;;;;;25.70;13.83;;;6.60;99.90;;;;;;10329950;28;20283;-88
2024/01/01 20:55:26;;;;;;;25.77;13.73;;;5.90;99.90;;;;;;10310030;28;20314;-87
2024/01/01 21:00:28;;;;;;;30.53;13.77;;;5.50;99.90;;;;;;10331482;28;20271;-87
2024/01/01 21:05:31;;;;;;;23.20;13.53;;;5.30;99.90;;;;;;10294471;28;20752;-86
2024/01/01 21:10:34;;;;;;;150.27;79.80;;;5.20;99.90;;;;;;10290690;28;20488;-93
2024/01/01 21:15:36;;;;;;;23.33;12.53;;;6.30;99.90;;;;;;10291101;28;20543;-88
2024/01/01 21:20:39;;;;;;;27.70;13.23;;;6.00;99.90;;;;;;10258235;28;20289;-86
2024/01/01 21:25:43;;;;;;;19.93;11.47;;;5.50;99.90;;;;;;10291154;28;20249;-88
2024/01/01 21:30:45;;;;;;;24.17;11.43;;;5.30;99.90;;;;;;10289647;28;20732;-84
2024/01/01 21:35:48;;;;;;;22.53;11.07;;;5.30;99.90;;;;;;10294702;28;20259;-84
2024/01/01 21:40:51;;;;;;;19.03;9.33;;;5.30;99.90;;;;;;10323113;28;20241;-85
2024/01/01 21:45:53;;;;;;;86.03;33.53;;;5.30;99.90;;;;;;10289782;28;20297;-82
2024/01/01 21:50:56;;;;;;;48.33;25.00;;;5.90;99.90;;;;;;10291856;28;20221;-83
2024/01/01 21:55:58;;;;;;;67.27;35.73;;;7.20;99.90;;;;;;10327705;28;20279;-83
2024/01/01 22:01:01;;;;;;;76.10;37.07;;;7.80;99.90;;;;;;10327698;28;20277;-83
2024/01/01 22:06:03;;;;;;;61.30;31.37;;;8.40;99.90;;;;;;10327523;28;20350;-83
2024/01/01 22:11:06;;;;;;;55.90;28.83;;;8.70;99.90;;;;;;10288243;28;20232;-83
2024/01/01 22:16:09;;;;;;;27.83;15.50;;;8.90;99.90;;;;;;10303498;28;20240;-84
2024/01/01 22:21:18;;;;;;;24.00;12.47;;;9.10;99.90;;;;;;9908361;28;9999805;-84
2024/01/01 22:26:21;;;;;;;25.03;12.60;;;8.90;99.90;;;;;;10244781;29;20258;-84
2024/01/01 22:31:24;;;;;;;59.37;30.13;;;8.30;99.90;;;;;;10257751;28;20241;-84
2024/01/01 22:36:26;;;;;;;55.03;27.53;;;8.20;99.90;;;;;;10285032;28;20671;-84
2024/01/01 22:41:29;;;;;;;32.87;18.40;;;9.30;99.90;;;;;;10283762;28;20245;-84
2024/01/01 22:46:31;;;;;;;43.00;23.30;;;9.20;99.90;;;;;;10283188;28;20252;-85
2024/01/01 22:51:33;;;;;;;52.73;28.47;;;9.30;99.90;;;;;;10295110;28;20287;-84
2024/01/01 22:56:36;;;;;;;51.00;29.17;;;10.20;99.90;;;;;;10323377;28;20310;-84
2024/01/01 23:01:39;;;;;;;56.43;29.50;;;10.80;99.90;;;;;;10324038;28;20248;-84
2024/01/01 23:06:41;;;;;;;43.33;23.87;;;10.70;99.90;;;;;;10299433;28;20269;-84
2024/01/01 23:11:43;;;;;;;52.20;29.20;;;11.40;99.90;;;;;;10298110;28;21053;-84
2024/01/01 23:16:46;;;;;;;18.20;9.47;;;11.60;99.90;;;;;;10283419;28;20300;-84
2024/01/01 23:21:48;;;;;;;35.53;22.43;;;11.20;99.90;;;;;;10280857;28;20240;-84
2024/01/01 23:26:51;;;;;;;42.13;26.10;;;11.70;99.90;;;;;;10291909;28;20264;-84
2024/01/01 23:31:53;;;;;;;35.43;22.57;;;11.80;99.90;;;;;;10326937;28;20291;-84
2024/01/01 23:36:56;;;;;;;36.57;23.47;;;12.00;99.90;;;;;;10327885;28;20230;-84
2024/01/01 23:41:58;;;;;;;137.57;69.27;;;11.50;99.90;;;;;;10294289;28;20233;-84
2024/01/01 23:47:01;;;;;;;132.43;69.80;;;11.70;99.90;;;;;;10308245;28;20327;-84
2024/01/01 23:52:04;;;;;;;80.23;46.67;;;11.80;99.90;;;;;;10295815;28;20229;-83
2024/01/01 23:57:07;;;;;;;122.97;63.90;;;11.90;99.90;;;;;;10292917;28;20292;-83
